sensor_id;sensor_type;location;lat;lon;timestamp;temperature;humidity
55064;DHT22;40963;52.168;21.296;2022-09-03T00:01:17;8.10;99.90
55064;DHT22;40963;52.168;21.296;2022-09-03T00:03:48;8.10;99.90
55064;DHT22;40963;52.168;21.296;2022-09-03T00:06:22;8.10;99.90
55064;DHT22;40963;52.168;21.296;2022-09-03T00:09:06;8.00;99.90
55064;DHT22;40963;52.168;21.296;2022-09-03T00:17:10;7.90;99.90
55064;DHT22;40963;52.168;21.296;2022-09-03T00:19:54;7.90;99.90
55064;DHT22;40963;52.168;21.296;2022-09-03T00:22:26;7.80;99.90
55064;DHT22;40963;52.168;21.296;2022-09-03T00:24:52;7.70;99.90
55064;DHT22;40963;52.168;21.296;2022-09-03T00:27:22;7.70;99.90
55064;DHT22;40963;52.168;21.296;2022-09-03T00:29:58;7.60;99.90
55064;DHT22;40963;52.168;21.296;2022-09-03T00:32:39;7.60;99.90
55064;DHT22;40963;52.168;21.296;2022-09-03T00:35:10;7.60;99.90
55064;DHT22;40963;52.168;21.296;2022-09-03T00:37:38;7.50;99.90
55064;DHT22;40963;52.168;21.296;2022-09-03T00:40:12;7.50;99.90
55064;DHT22;40963;52.168;21.296;2022-09-03T00:42:50;7.50;99.90
55064;DHT22;40963;52.168;21.296;2022-09-03T00:45:24;7.40;99.90
55064;DHT22;40963;52.168;21.296;2022-09-03T01:02:29;7.40;99.90
55064;DHT22;40963;52.168;21.296;2022-09-03T01:05:13;7.30;99.90
55064;DHT22;40963;52.168;21.296;2022-09-03T01:11:19;7.20;99.90
55064;DHT22;40963;52.168;21.296;2022-09-03T01:13:17;7.20;99.90
55064;DHT22;40963;52.168;21.296;2022-09-03T01:18:51;7.10;99.90
55064;DHT22;40963;52.168;21.296;2022-09-03T01:24:52;7.00;99.90
55064;DHT22;40963;52.168;21.296;2022-09-03T01:30:13;7.00;99.90
55064;DHT22;40963;52.168;21.296;2022-09-03T01:38:32;7.00;99.90
55064;DHT22;40963;52.168;21.296;2022-09-03T01:43:40;7.00;99.90
55064;DHT22;40963;52.168;21.296;2022-09-03T01:46:43;7.00;99.90
55064;DHT22;40963;52.168;21.296;2022-09-03T01:51:45;7.00;99.90
55064;DHT22;40963;52.168;21.296;2022-09-03T01:59:43;6.90;99.90
55064;DHT22;40963;52.168;21.296;2022-09-03T02:02:21;6.80;99.90
55064;DHT22;40963;52.168;21.296;2022-09-03T02:07:30;6.80;99.90
55064;DHT22;40963;52.168;21.296;2022-09-03T02:09:59;6.80;99.90
55064;DHT22;40963;52.168;21.296;2022-09-03T02:12:25;6.80;99.90
55064;DHT22;40963;52.168;21.296;2022-09-03T02:14:54;6.70;99.90
55064;DHT22;40963;52.168;21.296;2022-09-03T02:17:20;6.70;99.90
55064;DHT22;40963;52.168;21.296;2022-09-03T02:19:46;6.70;99.90
55064;DHT22;40963;52.168;21.296;2022-09-03T02:22:12;6.70;99.90
55064;DHT22;40963;52.168;21.296;2022-09-03T02:24:37;6.70;99.90
55064;DHT22;40963;52.168;21.296;2022-09-03T02:27:03;6.60;99.90
55064;DHT22;40963;52.168;21.296;2022-09-03T02:29:29;6.60;99.90
55064;DHT22;40963;52.168;21.296;2022-09-03T02:31:57;6.60;99.90
55064;DHT22;40963;52.168;21.296;2022-09-03T02:34:23;6.50;99.90
55064;DHT22;40963;52.168;21.296;2022-09-03T02:36:48;6.50;99.90
55064;DHT22;40963;52.168;21.296;2022-09-03T02:39:15;6.50;99.90
55064;DHT22;40963;52.168;21.296;2022-09-03T02:41:41;6.50;99.90
55064;DHT22;40963;52.168;21.296;2022-09-03T02:44:15;6.40;99.90
55064;DHT22;40963;52.168;21.296;2022-09-03T02:46:49;6.40;99.90
55064;DHT22;40963;52.168;21.296;2022-09-03T02:49:16;6.40;99.90
55064;DHT22;40963;52.168;21.296;2022-09-03T02:51:43;6.40;99.90
55064;DHT22;40963;52.168;21.296;2022-09-03T02:54:10;6.30;99.90
55064;DHT22;40963;52.168;21.296;2022-09-03T02:56:36;6.30;99.90
55064;DHT22;40963;52.168;21.296;2022-09-03T02:59:04;6.30;99.90
55064;DHT22;40963;52.168;21.296;2022-09-03T03:01:30;6.30;99.90
55064;DHT22;40963;52.168;21.296;2022-09-03T03:03:56;6.20;99.90
55064;DHT22;40963;52.168;21.296;2022-09-03T03:06:22;6.20;99.90
55064;DHT22;40963;52.168;21.296;2022-09-03T03:08:49;6.10;99.90
55064;DHT22;40963;52.168;21.296;2022-09-03T03:11:16;6.10;99.90
55064;DHT22;40963;52.168;21.296;2022-09-03T03:13:44;6.10;99.90
55064;DHT22;40963;52.168;21.296;2022-09-03T03:16:10;6.20;99.90
55064;DHT22;40963;52.168;21.296;2022-09-03T03:18:36;6.20;99.90
55064;DHT22;40963;52.168;21.296;2022-09-03T03:21:05;6.20;99.90
55064;DHT22;40963;52.168;21.296;2022-09-03T03:23:32;6.20;99.90
55064;DHT22;40963;52.168;21.296;2022-09-03T03:26:07;6.20;99.90
55064;DHT22;40963;52.168;21.296;2022-09-03T03:28:33;6.10;99.90
55064;DHT22;40963;52.168;21.296;2022-09-03T03:31:10;6.20;99.90
55064;DHT22;40963;52.168;21.296;2022-09-03T03:33:37;6.10;99.90
55064;DHT22;40963;52.168;21.296;2022-09-03T03:36:11;6.10;99.90
55064;DHT22;40963;52.168;21.296;2022-09-03T03:38:37;6.10;99.90
55064;DHT22;40963;52.168;21.296;2022-09-03T03:41:12;6.10;99.90
55064;DHT22;40963;52.168;21.296;2022-09-03T03:43:38;6.10;99.90
55064;DHT22;40963;52.168;21.296;2022-09-03T03:46:04;6.00;99.90
55064;DHT22;40963;52.168;21.296;2022-09-03T03:48:30;6.00;99.90
55064;DHT22;40963;52.168;21.296;2022-09-03T03:51:03;6.00;99.90
55064;DHT22;40963;52.168;21.296;2022-09-03T03:53:33;6.00;99.90
55064;DHT22;40963;52.168;21.296;2022-09-03T03:56:01;5.90;99.90
55064;DHT22;40963;52.168;21.296;2022-09-03T03:58:29;5.90;99.90
55064;DHT22;40963;52.168;21.296;2022-09-03T04:01:03;5.90;99.90
55064;DHT22;40963;52.168;21.296;2022-09-03T04:03:29;5.90;99.90
55064;DHT22;40963;52.168;21.296;2022-09-03T04:05:56;5.90;99.90
55064;DHT22;40963;52.168;21.296;2022-09-03T04:08:24;5.80;99.90
55064;DHT22;40963;52.168;21.296;2022-09-03T04:10:50;5.80;99.90
55064;DHT22;40963;52.168;21.296;2022-09-03T04:13:16;5.80;99.90
55064;DHT22;40963;52.168;21.296;2022-09-03T04:15:41;5.80;99.90
55064;DHT22;40963;52.168;21.296;2022-09-03T04:18:07;5.80;99.90
55064;DHT22;40963;52.168;21.296;2022-09-03T04:20:34;5.70;99.90
55064;DHT22;40963;52.168;21.296;2022-09-03T04:23:01;5.70;99.90
55064;DHT22;40963;52.168;21.296;2022-09-03T04:25:27;5.70;99.90
55064;DHT22;40963;52.168;21.296;2022-09-03T04:27:52;5.70;99.90
55064;DHT22;40963;52.168;21.296;2022-09-03T04:30:19;5.80;99.90
55064;DHT22;40963;52.168;21.296;2022-09-03T04:32:44;5.70;99.90
55064;DHT22;40963;52.168;21.296;2022-09-03T04:35:22;5.70;99.90
55064;DHT22;40963;52.168;21.296;2022-09-03T04:37:48;5.70;99.90
55064;DHT22;40963;52.168;21.296;2022-09-03T04:40:14;5.70;99.90
55064;DHT22;40963;52.168;21.296;2022-09-03T04:42:40;5.70;99.90
55064;DHT22;40963;52.168;21.296;2022-09-03T04:45:06;5.70;99.90
55064;DHT22;40963;52.168;21.296;2022-09-03T04:47:33;5.80;99.90
55064;DHT22;40963;52.168;21.296;2022-09-03T04:49:59;5.80;99.90
55064;DHT22;40963;52.168;21.296;2022-09-03T04:52:27;5.90;99.90
55064;DHT22;40963;52.168;21.296;2022-09-03T04:54:54;5.90;99.90
55064;DHT22;40963;52.168;21.296;2022-09-03T04:57:20;5.90;99.90
55064;DHT22;40963;52.168;21.296;2022-09-03T04:59:45;6.00;99.90
55064;DHT22;40963;52.168;21.296;2022-09-03T05:02:11;6.10;99.90
55064;DHT22;40963;52.168;21.296;2022-09-03T05:04:40;6.10;99.90
55064;DHT22;40963;52.168;21.296;2022-09-03T05:07:06;6.20;99.90
55064;DHT22;40963;52.168;21.296;2022-09-03T05:09:32;6.30;99.90
55064;DHT22;40963;52.168;21.296;2022-09-03T05:11:57;6.40;99.90
55064;DHT22;40963;52.168;21.296;2022-09-03T05:14:23;6.40;99.90
55064;DHT22;40963;52.168;21.296;2022-09-03T05:16:49;6.50;99.90
55064;DHT22;40963;52.168;21.296;2022-09-03T05:19:14;6.60;99.90
55064;DHT22;40963;52.168;21.296;2022-09-03T05:21:40;6.70;99.90
55064;DHT22;40963;52.168;21.296;2022-09-03T05:24:07;6.80;99.90
55064;DHT22;40963;52.168;21.296;2022-09-03T05:26:36;6.90;99.90
55064;DHT22;40963;52.168;21.296;2022-09-03T05:29:04;7.00;99.90
55064;DHT22;40963;52.168;21.296;2022-09-03T05:31:34;7.00;99.90
55064;DHT22;40963;52.168;21.296;2022-09-03T05:34:02;7.20;99.90
55064;DHT22;40963;52.168;21.296;2022-09-03T05:36:31;7.30;99.90
55064;DHT22;40963;52.168;21.296;2022-09-03T05:38:57;7.40;99.90
55064;DHT22;40963;52.168;21.296;2022-09-03T05:41:24;7.50;99.90
55064;DHT22;40963;52.168;21.296;2022-09-03T05:43:51;7.60;99.90
55064;DHT22;40963;52.168;21.296;2022-09-03T05:46:24;7.80;99.90
55064;DHT22;40963;52.168;21.296;2022-09-03T05:48:56;7.90;99.90
55064;DHT22;40963;52.168;21.296;2022-09-03T05:51:23;8.10;99.90
55064;DHT22;40963;52.168;21.296;2022-09-03T05:53:49;8.20;99.90
55064;DHT22;40963;52.168;21.296;2022-09-03T05:56:18;8.40;99.90
55064;DHT22;40963;52.168;21.296;2022-09-03T05:58:46;8.50;99.90
55064;DHT22;40963;52.168;21.296;2022-09-03T06:01:15;8.70;99.90
55064;DHT22;40963;52.168;21.296;2022-09-03T06:03:42;8.80;99.90
55064;DHT22;40963;52.168;21.296;2022-09-03T06:06:09;9.00;99.90
55064;DHT22;40963;52.168;21.296;2022-09-03T06:08:35;9.10;99.90
55064;DHT22;40963;52.168;21.296;2022-09-03T06:11:05;9.30;99.90
55064;DHT22;40963;52.168;21.296;2022-09-03T06:13:31;9.50;99.90
55064;DHT22;40963;52.168;21.296;2022-09-03T06:15:59;9.70;99.90
55064;DHT22;40963;52.168;21.296;2022-09-03T06:18:26;9.80;99.90
55064;DHT22;40963;52.168;21.296;2022-09-03T06:21:10;10.00;99.90
55064;DHT22;40963;52.168;21.296;2022-09-03T06:23:35;10.20;99.90
55064;DHT22;40963;52.168;21.296;2022-09-03T06:28:27;10.50;99.90
55064;DHT22;40963;52.168;21.296;2022-09-03T06:30:56;10.70;99.90
55064;DHT22;40963;52.168;21.296;2022-09-03T06:33:21;10.90;99.90
55064;DHT22;40963;52.168;21.296;2022-09-03T06:35:52;11.10;99.90
55064;DHT22;40963;52.168;21.296;2022-09-03T06:38:22;11.20;99.90
55064;DHT22;40963;52.168;21.296;2022-09-03T06:40:57;11.40;99.90
55064;DHT22;40963;52.168;21.296;2022-09-03T06:43:23;11.60;99.90
55064;DHT22;40963;52.168;21.296;2022-09-03T06:48:21;12.00;99.80
55064;DHT22;40963;52.168;21.296;2022-09-03T06:51:02;12.10;99.40
55064;DHT22;40963;52.168;21.296;2022-09-03T06:53:30;12.30;98.90
55064;DHT22;40963;52.168;21.296;2022-09-03T06:56:02;12.50;98.40
55064;DHT22;40963;52.168;21.296;2022-09-03T06:58:29;12.70;98.10
55064;DHT22;40963;52.168;21.296;2022-09-03T07:01:06;12.90;97.60
55064;DHT22;40963;52.168;21.296;2022-09-03T07:03:33;13.10;97.40
55064;DHT22;40963;52.168;21.296;2022-09-03T07:06:00;13.30;96.80
55064;DHT22;40963;52.168;21.296;2022-09-03T07:08:26;13.40;95.90
55064;DHT22;40963;52.168;21.296;2022-09-03T07:10:52;13.60;95.40
55064;DHT22;40963;52.168;21.296;2022-09-03T07:13:17;13.70;94.90
55064;DHT22;40963;52.168;21.296;2022-09-03T07:15:44;13.90;94.60
55064;DHT22;40963;52.168;21.296;2022-09-03T07:18:10;14.10;94.20
55064;DHT22;40963;52.168;21.296;2022-09-03T07:20:36;14.40;93.70
55064;DHT22;40963;52.168;21.296;2022-09-03T07:23:01;14.50;93.00
55064;DHT22;40963;52.168;21.296;2022-09-03T07:25:27;14.70;92.30
55064;DHT22;40963;52.168;21.296;2022-09-03T07:27:53;14.90;91.90
55064;DHT22;40963;52.168;21.296;2022-09-03T07:30:19;15.10;91.10
55064;DHT22;40963;52.168;21.296;2022-09-03T07:32:45;15.30;90.30
55064;DHT22;40963;52.168;21.296;2022-09-03T07:35:12;15.40;89.60
55064;DHT22;40963;52.168;21.296;2022-09-03T07:37:42;15.60;88.30
55064;DHT22;40963;52.168;21.296;2022-09-03T07:40:09;15.80;87.30
55064;DHT22;40963;52.168;21.296;2022-09-03T07:42:38;16.10;86.30
55064;DHT22;40963;52.168;21.296;2022-09-03T07:45:06;16.20;84.80
55064;DHT22;40963;52.168;21.296;2022-09-03T07:47:35;16.40;82.80
55064;DHT22;40963;52.168;21.296;2022-09-03T07:50:02;16.50;81.30
55064;DHT22;40963;52.168;21.296;2022-09-03T07:52:29;16.60;79.20
55064;DHT22;40963;52.168;21.296;2022-09-03T07:54:54;16.70;78.30
55064;DHT22;40963;52.168;21.296;2022-09-03T07:57:20;16.80;77.10
55064;DHT22;40963;52.168;21.296;2022-09-03T07:59:46;16.90;75.80
55064;DHT22;40963;52.168;21.296;2022-09-03T08:02:12;17.10;75.20
55064;DHT22;40963;52.168;21.296;2022-09-03T08:04:38;17.30;74.00
55064;DHT22;40963;52.168;21.296;2022-09-03T08:07:05;17.40;71.50
55064;DHT22;40963;52.168;21.296;2022-09-03T08:09:31;17.50;69.50
55064;DHT22;40963;52.168;21.296;2022-09-03T08:11:57;17.70;68.50
55064;DHT22;40963;52.168;21.296;2022-09-03T08:14:23;17.90;67.40
55064;DHT22;40963;52.168;21.296;2022-09-03T08:16:49;18.00;66.00
55064;DHT22;40963;52.168;21.296;2022-09-03T08:19:16;18.20;64.90
55064;DHT22;40963;52.168;21.296;2022-09-03T08:21:43;18.30;63.20
55064;DHT22;40963;52.168;21.296;2022-09-03T08:24:14;18.40;62.20
55064;DHT22;40963;52.168;21.296;2022-09-03T08:26:41;18.50;61.80
55064;DHT22;40963;52.168;21.296;2022-09-03T08:29:07;18.70;60.60
55064;DHT22;40963;52.168;21.296;2022-09-03T08:31:34;18.80;58.60
55064;DHT22;40963;52.168;21.296;2022-09-03T08:34:02;19.00;57.30
55064;DHT22;40963;52.168;21.296;2022-09-03T08:36:30;19.20;56.00
55064;DHT22;40963;52.168;21.296;2022-09-03T08:38:57;19.40;55.00
55064;DHT22;40963;52.168;21.296;2022-09-03T08:41:44;19.50;54.20
55064;DHT22;40963;52.168;21.296;2022-09-03T08:47:01;19.90;53.40
55064;DHT22;40963;52.168;21.296;2022-09-03T08:52:40;20.10;52.00
55064;DHT22;40963;52.168;21.296;2022-09-03T08:57:47;20.10;50.70
55064;DHT22;40963;52.168;21.296;2022-09-03T09:00:13;20.20;50.70
55064;DHT22;40963;52.168;21.296;2022-09-03T09:05:54;20.40;49.30
55064;DHT22;40963;52.168;21.296;2022-09-03T09:11:25;20.60;48.50
55064;DHT22;40963;52.168;21.296;2022-09-03T09:14:01;20.80;47.70
55064;DHT22;40963;52.168;21.296;2022-09-03T09:16:49;20.90;47.40
55064;DHT22;40963;52.168;21.296;2022-09-03T09:22:04;21.10;46.10
55064;DHT22;40963;52.168;21.296;2022-09-03T09:24:43;21.20;45.40
55064;DHT22;40963;52.168;21.296;2022-09-03T09:27:13;21.20;45.30
55064;DHT22;40963;52.168;21.296;2022-09-03T09:29:45;21.20;45.10
55064;DHT22;40963;52.168;21.296;2022-09-03T09:32:12;21.30;45.00
55064;DHT22;40963;52.168;21.296;2022-09-03T09:34:39;21.20;44.50
55064;DHT22;40963;52.168;21.296;2022-09-03T09:37:13;21.20;44.80
55064;DHT22;40963;52.168;21.296;2022-09-03T09:39:40;21.20;45.00
55064;DHT22;40963;52.168;21.296;2022-09-03T09:42:08;21.30;44.90
55064;DHT22;40963;52.168;21.296;2022-09-03T09:44:40;21.30;44.00
55064;DHT22;40963;52.168;21.296;2022-09-03T09:47:30;21.30;44.30
55064;DHT22;40963;52.168;21.296;2022-09-03T09:49:59;21.20;44.50
55064;DHT22;40963;52.168;21.296;2022-09-03T09:52:28;21.30;44.50
55064;DHT22;40963;52.168;21.296;2022-09-03T09:55:15;21.30;44.40
55064;DHT22;40963;52.168;21.296;2022-09-03T09:57:42;21.20;44.00
55064;DHT22;40963;52.168;21.296;2022-09-03T10:00:11;21.20;44.00
55064;DHT22;40963;52.168;21.296;2022-09-03T10:02:40;21.20;43.70
55064;DHT22;40963;52.168;21.296;2022-09-03T10:05:22;21.30;43.70
55064;DHT22;40963;52.168;21.296;2022-09-03T10:08:03;21.40;43.40
55064;DHT22;40963;52.168;21.296;2022-09-03T10:10:32;21.40;43.20
55064;DHT22;40963;52.168;21.296;2022-09-03T10:13:06;21.40;43.20
55064;DHT22;40963;52.168;21.296;2022-09-03T10:15:41;21.40;42.60
55064;DHT22;40963;52.168;21.296;2022-09-03T10:21:46;21.50;43.00
55064;DHT22;40963;52.168;21.296;2022-09-03T10:24:18;21.60;43.50
55064;DHT22;40963;52.168;21.296;2022-09-03T10:26:46;21.60;43.10
55064;DHT22;40963;52.168;21.296;2022-09-03T10:29:17;21.70;42.90
55064;DHT22;40963;52.168;21.296;2022-09-03T10:34:53;21.90;42.80
55064;DHT22;40963;52.168;21.296;2022-09-03T10:37:46;21.90;42.50
55064;DHT22;40963;52.168;21.296;2022-09-03T10:40:43;22.00;42.20
55064;DHT22;40963;52.168;21.296;2022-09-03T10:46:18;22.00;42.00
55064;DHT22;40963;52.168;21.296;2022-09-03T10:48:54;22.00;41.90
55064;DHT22;40963;52.168;21.296;2022-09-03T10:54:04;22.20;42.30
55064;DHT22;40963;52.168;21.296;2022-09-03T10:56:45;22.10;42.50
55064;DHT22;40963;52.168;21.296;2022-09-03T11:05:01;22.00;42.30
55064;DHT22;40963;52.168;21.296;2022-09-03T11:07:40;21.90;42.10
55064;DHT22;40963;52.168;21.296;2022-09-03T11:10:32;21.70;42.10
55064;DHT22;40963;52.168;21.296;2022-09-03T11:13:15;21.60;42.70
55064;DHT22;40963;52.168;21.296;2022-09-03T11:15:57;21.60;42.70
55064;DHT22;40963;52.168;21.296;2022-09-03T11:18:31;21.60;42.60
55064;DHT22;40963;52.168;21.296;2022-09-03T11:21:02;21.70;42.90
55064;DHT22;40963;52.168;21.296;2022-09-03T11:23:32;21.80;42.90
55064;DHT22;40963;52.168;21.296;2022-09-03T11:26:06;21.90;42.50
55064;DHT22;40963;52.168;21.296;2022-09-03T11:28:47;22.00;42.30
55064;DHT22;40963;52.168;21.296;2022-09-03T11:34:25;22.00;42.30
55064;DHT22;40963;52.168;21.296;2022-09-03T11:37:03;21.90;41.90
55064;DHT22;40963;52.168;21.296;2022-09-03T11:39:35;21.80;42.60
55064;DHT22;40963;52.168;21.296;2022-09-03T11:42:09;21.80;43.20
55064;DHT22;40963;52.168;21.296;2022-09-03T11:44:48;21.80;43.50
55064;DHT22;40963;52.168;21.296;2022-09-03T11:49:46;21.70;43.80
55064;DHT22;40963;52.168;21.296;2022-09-03T11:52:28;21.70;44.10
55064;DHT22;40963;52.168;21.296;2022-09-03T11:54:54;21.70;44.30
55064;DHT22;40963;52.168;21.296;2022-09-03T11:57:31;21.70;44.50
55064;DHT22;40963;52.168;21.296;2022-09-03T12:00:12;21.80;43.70
55064;DHT22;40963;52.168;21.296;2022-09-03T12:02:48;21.90;42.90
55064;DHT22;40963;52.168;21.296;2022-09-03T12:08:27;22.00;42.30
55064;DHT22;40963;52.168;21.296;2022-09-03T12:21:48;21.90;42.20
55064;DHT22;40963;52.168;21.296;2022-09-03T12:24:13;21.90;42.20
55064;DHT22;40963;52.168;21.296;2022-09-03T12:26:41;22.00;41.70
55064;DHT22;40963;52.168;21.296;2022-09-03T12:29:23;22.10;41.40
55064;DHT22;40963;52.168;21.296;2022-09-03T12:31:49;22.10;41.30
55064;DHT22;40963;52.168;21.296;2022-09-03T12:34:17;22.20;41.10
55064;DHT22;40963;52.168;21.296;2022-09-03T12:36:45;22.30;41.20
55064;DHT22;40963;52.168;21.296;2022-09-03T12:39:16;22.40;41.10
55064;DHT22;40963;52.168;21.296;2022-09-03T12:42:03;22.40;41.00
55064;DHT22;40963;52.168;21.296;2022-09-03T12:47:02;22.50;41.20
55064;DHT22;40963;52.168;21.296;2022-09-03T12:49:34;22.40;41.10
55064;DHT22;40963;52.168;21.296;2022-09-03T12:52:05;22.40;41.20
55064;DHT22;40963;52.168;21.296;2022-09-03T12:54:35;22.40;41.00
55064;DHT22;40963;52.168;21.296;2022-09-03T12:57:03;22.40;40.80
55064;DHT22;40963;52.168;21.296;2022-09-03T12:59:32;22.40;41.00
55064;DHT22;40963;52.168;21.296;2022-09-03T13:02:03;22.30;41.00
55064;DHT22;40963;52.168;21.296;2022-09-03T13:04:33;22.20;40.90
55064;DHT22;40963;52.168;21.296;2022-09-03T13:09:36;21.90;41.10
55064;DHT22;40963;52.168;21.296;2022-09-03T13:12:02;21.70;41.00
55064;DHT22;40963;52.168;21.296;2022-09-03T13:14:45;21.50;41.50
55064;DHT22;40963;52.168;21.296;2022-09-03T13:23:08;21.30;42.20
55064;DHT22;40963;52.168;21.296;2022-09-03T13:25:48;21.30;42.20
55064;DHT22;40963;52.168;21.296;2022-09-03T13:33:48;21.70;42.30
55064;DHT22;40963;52.168;21.296;2022-09-03T13:36:18;21.80;41.90
55064;DHT22;40963;52.168;21.296;2022-09-03T13:39:08;21.80;41.80
55064;DHT22;40963;52.168;21.296;2022-09-03T13:41:51;21.80;41.80
55064;DHT22;40963;52.168;21.296;2022-09-03T13:44:44;21.80;41.80
55064;DHT22;40963;52.168;21.296;2022-09-03T13:47:28;21.80;41.60
55064;DHT22;40963;52.168;21.296;2022-09-03T13:50:07;21.90;41.30
55064;DHT22;40963;52.168;21.296;2022-09-03T13:53:01;21.90;41.10
55064;DHT22;40963;52.168;21.296;2022-09-03T13:55:50;22.00;41.00
55064;DHT22;40963;52.168;21.296;2022-09-03T14:01:20;22.00;40.70
55064;DHT22;40963;52.168;21.296;2022-09-03T14:04:00;22.00;40.40
55064;DHT22;40963;52.168;21.296;2022-09-03T14:09:26;21.90;40.50
55064;DHT22;40963;52.168;21.296;2022-09-03T14:15:27;22.00;40.50
55064;DHT22;40963;52.168;21.296;2022-09-03T14:20:57;22.10;40.50
55064;DHT22;40963;52.168;21.296;2022-09-03T14:26:04;22.10;40.80
55064;DHT22;40963;52.168;21.296;2022-09-03T14:28:39;22.00;40.60
55064;DHT22;40963;52.168;21.296;2022-09-03T14:34:20;22.00;40.50
55064;DHT22;40963;52.168;21.296;2022-09-03T14:39:54;21.90;40.90
55064;DHT22;40963;52.168;21.296;2022-09-03T14:42:38;21.80;41.00
55064;DHT22;40963;52.168;21.296;2022-09-03T14:48:06;21.80;41.40
55064;DHT22;40963;52.168;21.296;2022-09-03T14:53:27;21.60;42.20
55064;DHT22;40963;52.168;21.296;2022-09-03T15:10:26;21.50;42.10
55064;DHT22;40963;52.168;21.296;2022-09-03T15:13:18;21.50;42.00
55064;DHT22;40963;52.168;21.296;2022-09-03T15:18:50;21.50;42.00
55064;DHT22;40963;52.168;21.296;2022-09-03T15:24:35;21.30;42.50
55064;DHT22;40963;52.168;21.296;2022-09-03T15:30:11;21.00;42.70
55064;DHT22;40963;52.168;21.296;2022-09-03T15:37:57;20.90;43.40
55064;DHT22;40963;52.168;21.296;2022-09-03T15:43:17;20.80;43.70
55064;DHT22;40963;52.168;21.296;2022-09-03T15:53:44;20.70;44.00
55064;DHT22;40963;52.168;21.296;2022-09-03T16:04:47;20.70;44.60
55064;DHT22;40963;52.168;21.296;2022-09-03T16:07:29;20.70;44.60
55064;DHT22;40963;52.168;21.296;2022-09-03T16:15:27;20.60;45.10
55064;DHT22;40963;52.168;21.296;2022-09-03T16:23:31;20.70;45.10
55064;DHT22;40963;52.168;21.296;2022-09-03T16:26:24;20.70;45.80
55064;DHT22;40963;52.168;21.296;2022-09-03T16:29:00;20.70;45.20
55064;DHT22;40963;52.168;21.296;2022-09-03T16:36:59;20.40;45.80
55064;DHT22;40963;52.168;21.296;2022-09-03T16:45:03;20.00;47.60
55064;DHT22;40963;52.168;21.296;2022-09-03T16:48:00;19.80;47.90
55064;DHT22;40963;52.168;21.296;2022-09-03T16:50:45;19.60;48.40
55064;DHT22;40963;52.168;21.296;2022-09-03T16:53:36;19.40;49.00
55064;DHT22;40963;52.168;21.296;2022-09-03T16:59:40;19.00;50.20
55064;DHT22;40963;52.168;21.296;2022-09-03T17:02:22;18.80;50.50
55064;DHT22;40963;52.168;21.296;2022-09-03T17:05:15;18.60;51.00
55064;DHT22;40963;52.168;21.296;2022-09-03T17:22:09;17.70;53.60
55064;DHT22;40963;52.168;21.296;2022-09-03T17:24:49;17.50;54.20
55064;DHT22;40963;52.168;21.296;2022-09-03T17:27:51;17.30;54.80
55064;DHT22;40963;52.168;21.296;2022-09-03T17:36:10;17.00;57.00
55064;DHT22;40963;52.168;21.296;2022-09-03T17:38:53;16.80;56.90
55064;DHT22;40963;52.168;21.296;2022-09-03T17:50:06;16.30;58.50
55064;DHT22;40963;52.168;21.296;2022-09-03T17:52:49;16.20;58.90
55064;DHT22;40963;52.168;21.296;2022-09-03T17:55:35;16.10;59.10
55064;DHT22;40963;52.168;21.296;2022-09-03T17:58:12;15.90;59.30
55064;DHT22;40963;52.168;21.296;2022-09-03T18:03:58;15.60;60.00
55064;DHT22;40963;52.168;21.296;2022-09-03T18:12:31;15.40;61.40
55064;DHT22;40963;52.168;21.296;2022-09-03T18:14:51;15.30;61.80
55064;DHT22;40963;52.168;21.296;2022-09-03T18:17:32;15.20;62.20
55064;DHT22;40963;52.168;21.296;2022-09-03T18:20:07;15.00;63.00
55064;DHT22;40963;52.168;21.296;2022-09-03T18:26:29;14.90;64.50
55064;DHT22;40963;52.168;21.296;2022-09-03T18:29:49;14.80;65.10
55064;DHT22;40963;52.168;21.296;2022-09-03T18:32:37;14.70;65.60
55064;DHT22;40963;52.168;21.296;2022-09-03T18:35:22;14.50;65.80
55064;DHT22;40963;52.168;21.296;2022-09-03T18:38:07;14.40;66.20
55064;DHT22;40963;52.168;21.296;2022-09-03T18:41:26;14.30;66.70
55064;DHT22;40963;52.168;21.296;2022-09-03T18:47:26;14.10;68.50
55064;DHT22;40963;52.168;21.296;2022-09-03T18:56:44;13.80;71.30
55064;DHT22;40963;52.168;21.296;2022-09-03T19:05:42;13.50;74.60
55064;DHT22;40963;52.168;21.296;2022-09-03T19:08:43;13.40;75.60
55064;DHT22;40963;52.168;21.296;2022-09-03T19:11:36;13.40;76.80
55064;DHT22;40963;52.168;21.296;2022-09-03T19:20:30;13.10;80.20
55064;DHT22;40963;52.168;21.296;2022-09-03T19:23:16;13.10;81.00
55064;DHT22;40963;52.168;21.296;2022-09-03T19:26:25;13.00;81.80
55064;DHT22;40963;52.168;21.296;2022-09-03T19:29:40;12.90;82.70
55064;DHT22;40963;52.168;21.296;2022-09-03T19:32:43;12.80;83.60
55064;DHT22;40963;52.168;21.296;2022-09-03T19:35:42;12.70;84.60
55064;DHT22;40963;52.168;21.296;2022-09-03T19:39:25;12.60;85.30
55064;DHT22;40963;52.168;21.296;2022-09-03T19:42:31;12.50;86.30
55064;DHT22;40963;52.168;21.296;2022-09-03T19:48:31;12.40;88.30
55064;DHT22;40963;52.168;21.296;2022-09-03T19:51:21;12.30;89.20
55064;DHT22;40963;52.168;21.296;2022-09-03T19:54:08;12.30;90.10
55064;DHT22;40963;52.168;21.296;2022-09-03T19:56:56;12.20;90.30
55064;DHT22;40963;52.168;21.296;2022-09-03T19:59:43;12.20;90.70
55064;DHT22;40963;52.168;21.296;2022-09-03T20:02:28;12.10;90.90
55064;DHT22;40963;52.168;21.296;2022-09-03T20:05:19;12.00;91.30
55064;DHT22;40963;52.168;21.296;2022-09-03T20:08:05;11.90;91.40
55064;DHT22;40963;52.168;21.296;2022-09-03T20:10:52;11.90;91.70
55064;DHT22;40963;52.168;21.296;2022-09-03T20:13:20;11.80;92.00
55064;DHT22;40963;52.168;21.296;2022-09-03T20:30:12;11.40;93.10
55064;DHT22;40963;52.168;21.296;2022-09-03T20:40:52;11.20;94.20
55064;DHT22;40963;52.168;21.296;2022-09-03T20:44:03;11.10;94.40
55064;DHT22;40963;52.168;21.296;2022-09-03T20:55:43;10.90;95.50
55064;DHT22;40963;52.168;21.296;2022-09-03T21:01:00;10.90;96.10
55064;DHT22;40963;52.168;21.296;2022-09-03T21:03:29;10.80;96.40
55064;DHT22;40963;52.168;21.296;2022-09-03T21:12:02;10.70;96.90
55064;DHT22;40963;52.168;21.296;2022-09-03T21:23:23;10.50;97.70
55064;DHT22;40963;52.168;21.296;2022-09-03T21:28:41;10.30;97.80
55064;DHT22;40963;52.168;21.296;2022-09-03T21:31:23;10.30;98.10
55064;DHT22;40963;52.168;21.296;2022-09-03T21:33:54;10.20;98.20
55064;DHT22;40963;52.168;21.296;2022-09-03T21:36:29;10.20;98.40
55064;DHT22;40963;52.168;21.296;2022-09-03T21:47:08;10.10;99.30
55064;DHT22;40963;52.168;21.296;2022-09-03T21:55:24;10.00;99.70
55064;DHT22;40963;52.168;21.296;2022-09-03T22:00:31;10.00;99.90
55064;DHT22;40963;52.168;21.296;2022-09-03T22:02:58;9.90;99.90
55064;DHT22;40963;52.168;21.296;2022-09-03T22:05:28;9.90;99.90